createdAt,value
2018-01-21T00:00:49.450Z,99.90
2018-01-21T00:03:17.705Z,99.90
2018-01-21T00:05:45.982Z,99.90
2018-01-21T00:08:13.478Z,99.90
2018-01-21T00:10:40.990Z,99.90
2018-01-21T00:13:08.486Z,99.90
2018-01-21T00:15:35.997Z,99.90
2018-01-21T00:18:03.494Z,99.90
2018-01-21T00:20:31.777Z,99.90
2018-01-21T00:22:59.265Z,99.90
2018-01-21T00:25:26.761Z,99.90
2018-01-21T00:27:54.275Z,99.90
2018-01-21T00:30:21.769Z,99.90
2018-01-21T00:32:49.283Z,99.90
2018-01-21T00:35:16.777Z,99.90
2018-01-21T00:37:44.275Z,99.90
2018-01-21T00:40:12.549Z,99.90
2018-01-21T00:42:40.815Z,99.90
2018-01-21T00:45:09.092Z,99.90
2018-01-21T00:47:37.349Z,99.90
2018-01-21T00:50:04.866Z,99.90
2018-01-21T00:52:32.362Z,99.90
2018-01-21T00:54:59.854Z,99.90
2018-01-21T00:57:27.395Z,99.90
2018-01-21T00:59:54.885Z,99.90
2018-01-21T01:02:22.402Z,99.90
2018-01-21T01:04:50.662Z,99.90
2018-01-21T01:07:18.149Z,99.90
2018-01-21T01:09:45.670Z,99.90
2018-01-21T01:12:13.166Z,99.90
2018-01-21T01:14:41.446Z,99.90
2018-01-21T01:17:09.706Z,99.90
2018-01-21T01:19:37.222Z,99.90
2018-01-21T01:22:04.713Z,99.90
2018-01-21T01:24:32.228Z,99.90
2018-01-21T01:26:59.716Z,99.90
2018-01-21T01:29:27.225Z,99.90
2018-01-21T01:31:54.741Z,99.90
2018-01-21T01:34:22.233Z,99.90
2018-01-21T01:36:50.513Z,99.90
2018-01-21T01:39:18.774Z,99.90
2018-01-21T01:41:46.286Z,99.90
2018-01-21T01:44:13.782Z,99.90
2018-01-21T01:46:41.278Z,99.90
2018-01-21T01:49:08.793Z,99.90
2018-01-21T01:51:36.281Z,99.90
2018-01-21T01:54:04.564Z,99.90
2018-01-21T01:56:32.824Z,99.90
2018-01-21T01:59:01.106Z,99.90
2018-01-21T02:01:29.360Z,99.90
2018-01-21T02:03:56.849Z,99.90
2018-01-21T02:06:25.133Z,99.90
2018-01-21T02:08:52.622Z,99.90
2018-01-21T02:11:20.129Z,99.90
2018-01-21T02:13:48.382Z,99.90
2018-01-21T02:16:15.892Z,99.90
2018-01-21T02:18:43.377Z,99.90
2018-01-21T02:21:10.861Z,99.90
2018-01-21T02:23:38.361Z,99.90
2018-01-21T02:26:05.844Z,99.90
2018-01-21T02:28:33.357Z,99.90
2018-01-21T02:31:01.610Z,99.90
2018-01-21T02:33:29.097Z,99.90
2018-01-21T02:35:57.388Z,99.90
2018-01-21T02:38:24.878Z,99.90
2018-01-21T02:40:52.386Z,99.90
2018-01-21T02:43:20.630Z,99.90
2018-01-21T02:45:48.136Z,99.90
2018-01-21T02:48:15.620Z,99.90
2018-01-21T02:50:43.105Z,99.90
2018-01-21T02:53:10.609Z,99.90
2018-01-21T02:55:38.093Z,99.90
2018-01-21T02:58:05.601Z,99.90
2018-01-21T03:00:33.086Z,99.90
2018-01-21T03:03:00.574Z,99.90
2018-01-21T03:05:28.081Z,99.90
2018-01-21T03:07:56.329Z,99.90
2018-01-21T03:10:23.833Z,99.90
2018-01-21T03:12:51.318Z,99.90
2018-01-21T03:15:18.826Z,99.90
2018-01-21T03:17:47.081Z,99.90
2018-01-21T03:20:14.566Z,99.90
2018-01-21T03:22:42.845Z,99.90
2018-01-21T03:25:11.101Z,99.90
2018-01-21T03:27:38.612Z,99.90
2018-01-21T03:30:06.104Z,99.90
2018-01-21T03:32:40.261Z,99.90
2018-01-21T03:35:08.514Z,99.90
2018-01-21T03:37:36.002Z,99.90
2018-01-21T03:40:03.509Z,99.90
2018-01-21T03:42:30.994Z,99.90
2018-01-21T03:44:59.269Z,99.90
2018-01-21T03:47:27.526Z,99.90
2018-01-21T03:49:55.033Z,99.90
2018-01-21T03:52:22.521Z,99.90
2018-01-21T03:54:49.997Z,99.90
2018-01-21T03:57:17.513Z,99.90
2018-01-21T03:59:45.002Z,99.90
2018-01-21T04:02:12.511Z,99.90
2018-01-21T04:04:40.761Z,99.90
2018-01-21T04:07:08.254Z,99.90
2018-01-21T04:09:35.762Z,99.90
2018-01-21T04:12:03.245Z,99.90
2018-01-21T04:14:31.518Z,99.90
2018-01-21T04:16:59.768Z,99.90
2018-01-21T04:19:27.278Z,99.90
2018-01-21T04:21:54.774Z,99.90
2018-01-21T04:24:22.288Z,99.90
2018-01-21T04:26:50.540Z,99.90
2018-01-21T04:29:18.030Z,99.90
2018-01-21T04:31:45.541Z,99.90
2018-01-21T04:34:13.025Z,99.90
2018-01-21T04:36:41.298Z,99.90
2018-01-21T04:39:09.549Z,99.90
2018-01-21T04:41:37.066Z,99.90
2018-01-21T04:44:04.557Z,99.90
2018-01-21T04:46:32.072Z,99.90
2018-01-21T04:48:59.554Z,99.90
2018-01-21T04:51:27.037Z,99.90
2018-01-21T04:53:54.541Z,99.90
2018-01-21T04:56:22.026Z,99.90
2018-01-21T04:58:49.537Z,99.90
2018-01-21T05:01:17.027Z,99.90
2018-01-21T05:03:44.520Z,99.90
2018-01-21T05:06:12.026Z,99.90
2018-01-21T05:08:40.277Z,99.90
2018-01-21T05:11:07.801Z,99.90
2018-01-21T05:13:35.286Z,99.90
2018-01-21T05:16:02.765Z,99.90
2018-01-21T05:18:31.037Z,99.90
2018-01-21T05:20:58.521Z,99.90
2018-01-21T05:23:26.031Z,99.90
2018-01-21T05:25:53.513Z,99.90
2018-01-21T05:28:21.784Z,99.90
2018-01-21T05:30:49.269Z,99.90
2018-01-21T05:33:16.776Z,99.90
2018-01-21T05:35:44.266Z,99.90
2018-01-21T05:38:12.517Z,99.90
2018-01-21T05:40:40.070Z,99.90
2018-01-21T05:43:07.538Z,99.90
2018-01-21T05:45:35.046Z,99.90
2018-01-21T05:48:02.530Z,99.90
2018-01-21T05:50:30.018Z,99.90
2018-01-21T05:52:57.530Z,99.90
2018-01-21T05:55:25.014Z,99.90
2018-01-21T05:57:52.521Z,99.90
2018-01-21T06:00:20.765Z,99.90
2018-01-21T06:02:48.258Z,99.90
2018-01-21T06:05:15.766Z,99.90
2018-01-21T06:07:43.249Z,99.90
2018-01-21T06:10:10.759Z,99.90
2018-01-21T06:12:38.241Z,99.90
2018-01-21T06:15:05.749Z,99.90
2018-01-21T06:17:33.233Z,99.90
2018-01-21T06:20:00.733Z,99.90
2018-01-21T06:22:28.221Z,99.90
2018-01-21T06:24:55.725Z,99.90
2018-01-21T06:27:23.215Z,99.90
2018-01-21T06:29:50.725Z,99.90
2018-01-21T06:32:18.210Z,99.90
2018-01-21T06:34:45.713Z,99.90
2018-01-21T06:37:13.202Z,99.90
2018-01-21T06:39:40.685Z,99.90
2018-01-21T06:42:08.189Z,99.90
2018-01-21T06:44:35.677Z,99.90
2018-01-21T06:47:03.197Z,99.90
2018-01-21T06:49:32.054Z,99.90
2018-01-21T06:52:01.045Z,99.90
2018-01-21T06:54:28.557Z,99.90
2018-01-21T06:56:56.040Z,99.90
2018-01-21T06:59:23.551Z,99.90
2018-01-21T07:01:51.802Z,99.90
2018-01-21T07:04:19.289Z,99.90
2018-01-21T07:06:47.563Z,99.90
2018-01-21T07:09:15.816Z,99.90
2018-01-21T07:11:43.325Z,99.90
2018-01-21T07:14:10.809Z,99.90
2018-01-21T07:16:38.316Z,99.90
2018-01-21T07:19:06.569Z,99.90
2018-01-21T07:21:34.820Z,99.90
2018-01-21T07:24:02.326Z,99.90
2018-01-21T07:26:30.578Z,99.90
2018-01-21T07:28:58.086Z,99.90
2018-01-21T07:31:25.570Z,99.90
2018-01-21T07:33:53.062Z,99.90
2018-01-21T07:36:21.337Z,99.90
2018-01-21T07:38:49.584Z,99.90
2018-01-21T07:41:17.091Z,99.90
2018-01-21T07:43:44.581Z,99.90
2018-01-21T07:46:12.070Z,99.90
2018-01-21T07:48:39.576Z,99.90
2018-01-21T07:51:07.057Z,99.90
2018-01-21T07:53:34.561Z,99.90
2018-01-21T07:56:02.054Z,99.90
2018-01-21T07:58:29.566Z,99.90
2018-01-21T08:00:57.058Z,99.90
2018-01-21T08:03:24.549Z,99.90
2018-01-21T08:05:52.061Z,99.90
2018-01-21T08:08:20.313Z,99.90
2018-01-21T08:10:47.822Z,99.90
2018-01-21T08:13:15.309Z,99.90
2018-01-21T08:15:42.819Z,99.90
2018-01-21T08:18:11.069Z,99.90
2018-01-21T08:20:38.553Z,99.90
2018-01-21T08:23:06.825Z,99.90
2018-01-21T08:25:35.073Z,99.90
2018-01-21T08:28:02.577Z,99.90
2018-01-21T08:30:30.061Z,99.90
2018-01-21T08:32:57.546Z,99.90
2018-01-21T08:38:37.530Z,99.90
2018-01-21T08:41:10.692Z,99.90
2018-01-21T08:43:38.197Z,99.90
2018-01-21T08:46:06.454Z,99.90
2018-01-21T08:48:33.941Z,99.90
2018-01-21T08:51:01.449Z,99.90
2018-01-21T08:53:28.933Z,99.90
2018-01-21T08:55:57.211Z,99.90
2018-01-21T08:58:25.460Z,99.90
2018-01-21T09:00:52.941Z,99.90
2018-01-21T09:03:21.213Z,99.90
2018-01-21T09:05:48.697Z,99.80
2018-01-21T09:08:16.190Z,99.60
2018-01-21T09:10:43.710Z,99.30
2018-01-21T09:13:11.194Z,99.50
2018-01-21T09:15:38.696Z,99.70
2018-01-21T09:18:06.201Z,99.50
2018-01-21T09:20:33.681Z,99.10
2018-01-21T09:23:01.165Z,99.10
2018-01-21T09:25:28.670Z,98.10
2018-01-21T09:27:56.153Z,95.90
2018-01-21T09:30:23.665Z,94.60
2018-01-21T09:32:51.921Z,93.60
2018-01-21T09:35:19.434Z,93.60
2018-01-21T09:37:46.922Z,93.80
2018-01-21T09:40:14.405Z,93.30
2018-01-21T09:42:41.910Z,92.80
2018-01-21T09:45:09.397Z,93.20
2018-01-21T09:47:36.910Z,93.30
2018-01-21T09:50:04.394Z,93.10
2018-01-21T09:52:31.874Z,93.40
2018-01-21T09:54:59.378Z,94.00
2018-01-21T09:57:26.866Z,94.20
2018-01-21T09:59:54.382Z,94.20
2018-01-21T10:02:22.629Z,94.00
2018-01-21T10:04:50.138Z,94.00
2018-01-21T10:07:17.621Z,94.30
2018-01-21T10:09:45.125Z,92.80
2018-01-21T10:12:13.374Z,88.40
2018-01-21T10:14:40.861Z,88.30
2018-01-21T10:17:09.134Z,83.50
2018-01-21T10:19:37.381Z,83.60
2018-01-21T10:22:04.889Z,83.50
2018-01-21T10:24:32.377Z,83.20
2018-01-21T10:26:59.886Z,85.70
2018-01-21T10:29:28.132Z,90.20
2018-01-21T10:31:55.618Z,90.20
2018-01-21T10:34:23.895Z,91.40
2018-01-21T10:36:52.145Z,91.20
2018-01-21T10:39:19.629Z,91.20
2018-01-21T10:41:47.905Z,91.80
2018-01-21T10:44:16.153Z,92.10
2018-01-21T10:46:43.657Z,92.10
2018-01-21T10:49:11.147Z,92.40
2018-01-21T10:51:38.644Z,92.90
2018-01-21T10:54:06.149Z,93.00
2018-01-21T10:56:33.634Z,92.70
2018-01-21T10:59:01.142Z,92.50
2018-01-21T11:01:28.649Z,92.50
2018-01-21T11:03:56.157Z,92.40
2018-01-21T11:06:24.409Z,92.90
2018-01-21T11:08:52.685Z,92.80
2018-01-21T11:11:20.170Z,92.80
2018-01-21T11:13:48.445Z,92.60
2018-01-21T11:16:16.693Z,92.60
2018-01-21T11:18:44.180Z,92.60
2018-01-21T11:21:12.454Z,91.90
2018-01-21T11:23:40.701Z,91.80
2018-01-21T11:26:08.214Z,91.80
2018-01-21T11:28:35.703Z,91.90
2018-01-21T11:31:03.190Z,92.20
2018-01-21T11:33:31.466Z,90.80
2018-01-21T11:35:59.713Z,87.30
2018-01-21T11:38:27.217Z,87.10
2018-01-21T11:40:55.473Z,77.50
2018-01-21T11:43:22.981Z,77.30
2018-01-21T11:45:50.466Z,72.90
2018-01-21T11:48:17.990Z,65.30
2018-01-21T11:50:45.482Z,59.50
2018-01-21T11:53:12.970Z,56.20
2018-01-21T11:55:41.246Z,52.10
2018-01-21T11:58:09.500Z,52.20
2018-01-21T12:00:37.014Z,52.20
2018-01-21T12:03:04.501Z,51.70
2018-01-21T12:05:32.010Z,51.80
2018-01-21T12:08:00.261Z,49.80
2018-01-21T12:10:28.542Z,49.10
2018-01-21T12:12:56.801Z,44.60
2018-01-21T12:15:24.293Z,44.10
2018-01-21T12:17:51.813Z,46.50
2018-01-21T12:20:19.306Z,48.70
2018-01-21T12:22:47.586Z,52.30
2018-01-21T12:25:15.837Z,55.20
2018-01-21T12:27:43.351Z,54.60
2018-01-21T12:30:10.837Z,55.30
2018-01-21T12:32:38.347Z,54.90
2018-01-21T12:35:05.835Z,57.60
2018-01-21T12:37:33.322Z,57.70
2018-01-21T12:40:00.833Z,55.20
2018-01-21T12:42:28.321Z,55.50
2018-01-21T12:44:55.830Z,56.00
2018-01-21T12:47:24.081Z,53.80
2018-01-21T12:49:51.569Z,53.80
2018-01-21T12:52:19.077Z,54.70
2018-01-21T12:54:46.568Z,54.70
2018-01-21T12:57:14.845Z,57.20
2018-01-21T12:59:43.105Z,56.40
2018-01-21T13:02:10.589Z,56.40
2018-01-21T13:04:38.868Z,57.60
2018-01-21T13:07:07.117Z,57.10
2018-01-21T13:09:34.626Z,57.10
2018-01-21T13:12:02.110Z,56.80
2018-01-21T13:14:29.593Z,57.90
2018-01-21T13:16:57.102Z,56.80
2018-01-21T13:19:24.590Z,56.30
2018-01-21T13:21:52.106Z,56.20
2018-01-21T13:24:19.602Z,55.60
2018-01-21T13:26:47.109Z,53.60
2018-01-21T13:29:15.361Z,56.40
2018-01-21T13:31:42.870Z,56.30
2018-01-21T13:34:10.357Z,56.50
2018-01-21T13:36:37.846Z,56.00
2018-01-21T13:39:06.123Z,59.70
2018-01-21T13:41:34.373Z,62.70
2018-01-21T13:44:01.877Z,62.60
2018-01-21T13:46:29.361Z,63.60
2018-01-21T13:48:56.850Z,65.60
2018-01-21T13:51:24.352Z,67.80
2018-01-21T13:53:51.841Z,69.00
2018-01-21T13:56:19.349Z,70.40
2018-01-21T13:58:47.602Z,68.70
2018-01-21T14:01:15.110Z,68.50
2018-01-21T14:03:42.594Z,68.80
2018-01-21T14:06:10.077Z,70.60
2018-01-21T14:08:39.089Z,72.20
2018-01-21T14:11:07.343Z,74.20
2018-01-21T14:13:34.844Z,74.10
2018-01-21T14:16:02.338Z,75.20
2018-01-21T14:18:29.850Z,77.20
2018-01-21T14:20:57.333Z,78.20
2018-01-21T14:23:24.845Z,78.50
2018-01-21T14:25:52.332Z,80.70
2018-01-21T14:28:19.845Z,82.50
2018-01-21T14:30:47.329Z,82.70
2018-01-21T14:33:15.581Z,83.60
2018-01-21T14:35:43.091Z,83.60
2018-01-21T14:38:10.582Z,84.50
2018-01-21T14:40:38.065Z,85.00
2018-01-21T14:43:05.578Z,85.70
2018-01-21T14:45:33.066Z,86.30
2018-01-21T14:48:00.557Z,86.30
2018-01-21T14:50:28.833Z,87.20
2018-01-21T14:52:57.081Z,87.40
2018-01-21T14:55:24.589Z,87.40
2018-01-21T14:57:52.073Z,87.80
2018-01-21T15:00:19.577Z,87.50
2018-01-21T15:02:47.830Z,90.20
2018-01-21T15:05:15.342Z,89.80
2018-01-21T15:07:42.825Z,90.40
2018-01-21T15:10:10.309Z,90.60
2018-01-21T15:12:37.842Z,91.00
2018-01-21T15:15:05.317Z,91.30
2018-01-21T15:17:32.825Z,90.80
2018-01-21T15:20:00.330Z,91.20
2018-01-21T15:22:27.838Z,91.50
2018-01-21T15:24:55.322Z,91.40
2018-01-21T15:27:22.809Z,90.90
2018-01-21T15:29:50.317Z,90.70
2018-01-21T15:32:17.801Z,91.00
2018-01-21T15:34:45.309Z,91.20
2018-01-21T15:37:13.559Z,91.40
2018-01-21T15:39:41.068Z,91.10
2018-01-21T15:42:08.553Z,91.20
2018-01-21T15:44:36.038Z,91.30
2018-01-21T15:47:03.551Z,91.30
2018-01-21T15:49:31.042Z,91.40
2018-01-21T15:51:58.551Z,91.70
2018-01-21T15:54:26.037Z,91.80
2018-01-21T15:56:53.541Z,91.90
2018-01-21T15:59:21.026Z,92.20
2018-01-21T16:01:49.278Z,92.40
2018-01-21T16:04:16.781Z,92.40
2018-01-21T16:06:44.267Z,92.70
2018-01-21T16:09:11.780Z,92.50
2018-01-21T16:11:39.269Z,92.60
2018-01-21T16:14:06.778Z,92.40
2018-01-21T16:16:35.045Z,93.00
2018-01-21T16:19:02.533Z,92.70
2018-01-21T16:21:30.061Z,92.20
2018-01-21T16:23:57.550Z,92.70
2018-01-21T16:26:25.057Z,92.60
2018-01-21T16:28:52.543Z,92.80
2018-01-21T16:31:20.797Z,92.90
2018-01-21T16:33:48.309Z,92.90
2018-01-21T16:36:30.676Z,93.10
2018-01-21T16:39:00.101Z,93.00
2018-01-21T16:41:27.602Z,93.50
2018-01-21T16:43:55.110Z,93.60
2018-01-21T16:46:23.366Z,93.90
2018-01-21T16:48:50.881Z,93.80
2018-01-21T16:51:18.366Z,94.00
2018-01-21T16:53:45.854Z,94.00
2018-01-21T16:56:14.134Z,94.10
2018-01-21T16:58:42.386Z,94.20
2018-01-21T17:01:09.902Z,94.20
2018-01-21T17:03:37.401Z,94.20
2018-01-21T17:06:04.921Z,94.50
2018-01-21T17:08:32.417Z,94.30
2018-01-21T17:11:00.689Z,94.70
2018-01-21T17:13:28.173Z,94.70
2018-01-21T17:15:56.453Z,94.80
2018-01-21T17:18:24.706Z,94.90
2018-01-21T17:20:52.189Z,94.90
2018-01-21T17:23:20.457Z,95.30
2018-01-21T17:25:47.941Z,95.30
2018-01-21T17:28:15.452Z,95.30
2018-01-21T17:30:42.937Z,95.30
2018-01-21T17:33:11.205Z,95.30
2018-01-21T17:35:38.694Z,95.30
2018-01-21T17:38:06.182Z,95.20
2018-01-21T17:40:33.697Z,95.20
2018-01-21T17:43:01.954Z,95.30
2018-01-21T17:45:29.473Z,95.30
2018-01-21T17:47:56.957Z,95.40
2018-01-21T17:50:24.465Z,95.50
2018-01-21T17:52:51.953Z,95.70
2018-01-21T17:55:19.437Z,95.70
2018-01-21T17:57:46.950Z,95.80
2018-01-21T18:00:14.438Z,96.00
2018-01-21T18:02:41.945Z,95.90
2018-01-21T18:05:09.438Z,95.90
2018-01-21T18:07:36.925Z,95.90
2018-01-21T18:10:04.439Z,96.00
2018-01-21T18:12:31.933Z,95.90
2018-01-21T18:15:00.210Z,96.60
2018-01-21T18:17:27.693Z,96.20
2018-01-21T18:19:55.953Z,96.40
2018-01-21T18:22:23.461Z,96.40
2018-01-21T18:24:50.951Z,96.50
2018-01-21T18:27:18.462Z,96.60
2018-01-21T18:29:45.946Z,96.70
2018-01-21T18:32:13.430Z,96.70
2018-01-21T18:34:40.937Z,96.80
2018-01-21T18:37:08.427Z,96.80
2018-01-21T18:39:35.937Z,96.70
2018-01-21T18:42:04.190Z,96.80
2018-01-21T18:44:31.710Z,96.70
2018-01-21T18:46:59.217Z,96.70
2018-01-21T18:49:26.721Z,96.90
2018-01-21T18:51:54.209Z,96.60
2018-01-21T18:54:21.692Z,96.50
2018-01-21T18:56:49.965Z,96.70
2018-01-21T18:59:17.449Z,96.80
2018-01-21T19:01:44.972Z,96.70
2018-01-21T19:04:12.452Z,96.60
2018-01-21T19:06:40.702Z,96.70
2018-01-21T19:09:08.230Z,96.60
2018-01-21T19:11:35.721Z,96.60
2018-01-21T19:14:03.230Z,96.50
2018-01-21T19:16:30.725Z,96.50
2018-01-21T19:18:58.214Z,96.50
2018-01-21T19:21:26.485Z,96.40
2018-01-21T19:23:53.963Z,96.20
2018-01-21T19:26:22.233Z,96.40
2018-01-21T19:28:50.477Z,96.50
2018-01-21T19:31:17.990Z,96.50
2018-01-21T19:33:45.472Z,96.40
2018-01-21T19:36:12.958Z,96.40
2018-01-21T19:38:50.394Z,96.40
2018-01-21T19:41:23.641Z,96.50
2018-01-21T19:43:52.097Z,96.40
2018-01-21T19:46:19.594Z,96.50
2018-01-21T19:48:47.087Z,96.60
2018-01-21T19:51:14.594Z,96.60
2018-01-21T19:53:42.074Z,97.10
2018-01-21T19:56:10.345Z,96.70
2018-01-21T19:58:37.830Z,96.70
2018-01-21T20:01:05.313Z,96.80
2018-01-21T20:03:32.822Z,96.80
2018-01-21T20:06:01.078Z,97.00
2018-01-21T20:08:28.587Z,96.90
2018-01-21T20:10:56.072Z,97.50
2018-01-21T20:13:23.556Z,97.80
2018-01-21T20:15:51.061Z,98.00
2018-01-21T20:18:18.607Z,98.20
2018-01-21T20:20:46.081Z,98.30
2018-01-21T20:23:13.569Z,98.40
2018-01-21T20:25:41.073Z,98.50
2018-01-21T20:28:09.322Z,98.90
2018-01-21T20:30:38.342Z,99.00
2018-01-21T20:33:06.594Z,99.00
2018-01-21T20:35:34.114Z,99.00
2018-01-21T20:38:01.626Z,99.00
2018-01-21T20:40:29.886Z,99.20
2018-01-21T20:42:57.404Z,99.20
2018-01-21T20:45:24.890Z,99.30
2018-01-21T20:47:52.398Z,99.40
2018-01-21T20:50:19.887Z,99.50
2018-01-21T20:52:47.400Z,99.50
2018-01-21T20:55:15.653Z,99.60
2018-01-21T20:57:43.161Z,99.60
2018-01-21T21:00:10.649Z,99.60
2018-01-21T21:02:38.133Z,99.60
2018-01-21T21:05:05.645Z,99.60
2018-01-21T21:07:33.142Z,99.60
2018-01-21T21:10:00.653Z,99.50
2018-01-21T21:12:28.138Z,99.50
2018-01-21T21:14:55.654Z,99.40
2018-01-21T21:17:23.905Z,99.30
2018-01-21T21:19:51.419Z,99.30
2018-01-21T21:22:18.906Z,99.30
2018-01-21T21:24:46.449Z,99.30
2018-01-21T21:27:13.923Z,99.30
2018-01-21T21:29:41.413Z,99.40
2018-01-21T21:32:09.685Z,99.40
2018-01-21T21:34:37.938Z,99.50
2018-01-21T21:37:05.435Z,99.40
2018-01-21T21:39:32.949Z,99.60
2018-01-21T21:42:00.434Z,99.60
2018-01-21T21:44:28.714Z,99.90
2018-01-21T21:46:56.970Z,99.90
2018-01-21T21:49:24.453Z,99.90
2018-01-21T21:51:52.732Z,99.90
2018-01-21T21:54:20.985Z,99.90
2018-01-21T21:56:48.497Z,99.90
2018-01-21T21:59:15.987Z,99.90
2018-01-21T22:01:43.478Z,99.90
2018-01-21T22:04:11.753Z,99.90
2018-01-21T22:06:40.006Z,99.90
2018-01-21T22:09:07.522Z,99.90
2018-01-21T22:11:35.019Z,99.90
2018-01-21T22:14:02.509Z,99.90
2018-01-21T22:16:30.785Z,99.90
2018-01-21T22:18:59.041Z,99.90
2018-01-21T22:21:26.562Z,99.90
2018-01-21T22:23:54.049Z,99.90
2018-01-21T22:26:21.564Z,99.90
2018-01-21T22:28:49.056Z,99.90
2018-01-21T22:31:16.558Z,99.90
2018-01-21T22:33:44.080Z,99.90
2018-01-21T22:36:11.574Z,99.90
2018-01-21T22:38:39.069Z,99.90
2018-01-21T22:41:06.581Z,99.90
2018-01-21T22:43:34.834Z,99.90
2018-01-21T22:46:02.359Z,99.90
2018-01-21T22:48:29.850Z,99.90
2018-01-21T22:50:57.337Z,99.90
2018-01-21T22:53:25.627Z,99.90
2018-01-21T22:55:53.121Z,99.90
2018-01-21T22:58:20.614Z,99.90
2018-01-21T23:00:48.894Z,99.90
2018-01-21T23:03:17.158Z,99.90
2018-01-21T23:05:44.655Z,99.90
2018-01-21T23:08:12.165Z,99.90
2018-01-21T23:10:39.657Z,99.90
2018-01-21T23:13:07.940Z,99.90
2018-01-21T23:15:35.425Z,99.90
2018-01-21T23:18:02.933Z,99.90
2018-01-21T23:20:42.938Z,99.60
2018-01-21T23:23:10.426Z,99.60
2018-01-21T23:25:37.921Z,99.50
2018-01-21T23:28:05.436Z,99.50
2018-01-21T23:30:32.925Z,99.40
2018-01-21T23:33:01.206Z,99.30
2018-01-21T23:35:29.466Z,99.20
2018-01-21T23:37:57.717Z,99.30
2018-01-21T23:40:25.225Z,99.20
2018-01-21T23:42:52.718Z,99.00
2018-01-21T23:45:20.205Z,98.90
2018-01-21T23:47:47.714Z,98.80
2018-01-21T23:50:15.205Z,98.80
2018-01-21T23:52:43.458Z,98.90
2018-01-21T23:55:10.965Z,98.80
2018-01-21T23:57:38.454Z,98.60
